createdAt,value
2024-05-09T00:00:40.268Z,69.35
2024-05-09T00:03:10.052Z,69.71
2024-05-09T00:05:43.117Z,70.08
2024-05-09T00:08:11.083Z,70.19
2024-05-09T00:10:39.956Z,70.52
2024-05-09T00:13:08.796Z,70.75
2024-05-09T00:15:37.111Z,70.84
2024-05-09T00:18:06.639Z,70.67
2024-05-09T00:20:39.022Z,70.54
2024-05-09T00:23:10.694Z,70.54
2024-05-09T00:25:38.893Z,70.59
2024-05-09T00:28:06.656Z,70.43
2024-05-09T00:30:36.343Z,69.80
2024-05-09T00:33:06.480Z,69.82
2024-05-09T00:35:35.491Z,69.90
2024-05-09T00:38:03.473Z,69.92
2024-05-09T00:40:41.605Z,69.39
2024-05-09T00:43:12.069Z,69.45
2024-05-09T00:45:40.379Z,69.52
2024-05-09T00:48:09.008Z,69.45
2024-05-09T00:50:39.935Z,69.59
2024-05-09T00:53:08.264Z,69.76
2024-05-09T00:55:35.799Z,69.95
2024-05-09T00:58:03.717Z,70.26
2024-05-09T01:00:37.977Z,70.38
2024-05-09T01:03:09.699Z,70.42
2024-05-09T01:05:39.515Z,70.55
2024-05-09T01:08:07.724Z,70.77
2024-05-09T01:10:36.630Z,70.81
2024-05-09T01:13:05.181Z,71.38
2024-05-09T01:15:33.085Z,71.95
2024-05-09T01:18:06.763Z,72.11
2024-05-09T01:20:41.257Z,72.23
2024-05-09T01:23:12.504Z,72.47
2024-05-09T01:25:41.088Z,72.46
2024-05-09T01:28:08.712Z,72.46
2024-05-09T01:30:37.587Z,72.70
2024-05-09T01:33:07.628Z,72.91
2024-05-09T01:35:37.371Z,73.12
2024-05-09T01:38:05.349Z,73.21
2024-05-09T01:40:37.883Z,73.31
2024-05-09T01:43:12.178Z,73.44
2024-05-09T01:45:40.492Z,73.50
2024-05-09T01:48:08.949Z,73.58
2024-05-09T01:50:40.478Z,73.73
2024-05-09T01:53:11.230Z,73.80
2024-05-09T01:55:39.035Z,73.92
2024-05-09T01:58:07.023Z,73.83
2024-05-09T02:00:39.885Z,74.01
2024-05-09T02:03:12.261Z,74.21
2024-05-09T02:05:43.346Z,74.24
2024-05-09T02:08:15.197Z,74.25
2024-05-09T02:10:46.862Z,74.34
2024-05-09T02:13:15.028Z,74.43
2024-05-09T02:15:42.431Z,74.62
2024-05-09T02:18:10.437Z,74.93
2024-05-09T02:20:39.119Z,75.20
2024-05-09T02:23:07.152Z,75.60
2024-05-09T02:25:35.023Z,75.79
2024-05-09T02:28:02.639Z,76.14
2024-05-09T02:30:38.478Z,76.31
2024-05-09T02:33:10.789Z,76.55
2024-05-09T02:35:40.219Z,76.39
2024-05-09T02:38:09.020Z,76.44
2024-05-09T02:40:38.781Z,76.57
2024-05-09T02:43:08.270Z,76.74
2024-05-09T02:45:37.310Z,76.89
2024-05-09T02:48:05.643Z,77.35
2024-05-09T02:50:38.335Z,77.69
2024-05-09T02:53:08.669Z,77.91
2024-05-09T02:55:41.664Z,78.10
2024-05-09T02:58:09.516Z,78.15
2024-05-09T03:00:40.557Z,79.44
2024-05-09T03:03:12.875Z,79.84
2024-05-09T03:05:43.694Z,80.15
2024-05-09T03:08:11.506Z,80.09
2024-05-09T03:10:39.689Z,80.28
2024-05-09T03:13:08.636Z,80.30
2024-05-09T03:15:37.044Z,80.35
2024-05-09T03:18:05.880Z,80.64
2024-05-09T03:20:35.627Z,80.76
2024-05-09T03:23:06.003Z,80.74
2024-05-09T03:25:34.072Z,80.91
2024-05-09T03:28:01.758Z,80.93
2024-05-09T03:30:36.287Z,81.08
2024-05-09T03:33:17.711Z,81.34
2024-05-09T03:35:48.021Z,81.19
2024-05-09T03:38:15.943Z,81.10
2024-05-09T03:40:50.831Z,81.32
2024-05-09T03:43:19.199Z,80.93
2024-05-09T03:45:49.317Z,80.78
2024-05-09T03:48:17.033Z,80.50
2024-05-09T03:50:45.025Z,80.11
2024-05-09T03:53:13.338Z,79.81
2024-05-09T03:55:40.971Z,79.47
2024-05-09T03:58:08.743Z,79.01
2024-05-09T04:00:39.040Z,78.61
2024-05-09T04:03:10.415Z,78.36
2024-05-09T04:05:41.192Z,77.62
2024-05-09T04:08:10.693Z,77.29
2024-05-09T04:10:38.538Z,77.22
2024-05-09T04:13:06.004Z,76.78
2024-05-09T04:15:33.550Z,76.97
2024-05-09T04:18:01.922Z,77.04
2024-05-09T04:20:37.612Z,76.91
2024-05-09T04:23:10.486Z,76.81
2024-05-09T04:25:38.204Z,76.71
2024-05-09T04:28:05.873Z,76.53
2024-05-09T04:30:38.351Z,76.28
2024-05-09T04:33:10.537Z,75.97
2024-05-09T04:35:42.020Z,76.18
2024-05-09T04:38:09.883Z,76.23
2024-05-09T04:40:37.954Z,75.99
2024-05-09T04:43:06.216Z,75.96
2024-05-09T04:45:34.199Z,76.65
2024-05-09T04:48:02.417Z,76.74
2024-05-09T04:50:36.650Z,76.78
2024-05-09T04:53:08.480Z,76.77
2024-05-09T04:55:37.429Z,76.44
2024-05-09T04:58:06.805Z,76.12
2024-05-09T05:00:37.025Z,75.01
2024-05-09T05:03:10.247Z,73.29
2024-05-09T05:05:40.796Z,72.34
2024-05-09T05:08:13.519Z,71.53
2024-05-09T05:10:42.011Z,69.76
2024-05-09T05:13:20.173Z,68.76
2024-05-09T05:15:50.047Z,67.63
2024-05-09T05:18:17.848Z,66.61
2024-05-09T05:20:45.737Z,65.54
2024-05-09T05:23:14.839Z,64.88
2024-05-09T05:25:42.882Z,62.99
2024-05-09T05:28:10.631Z,62.95
2024-05-09T05:30:38.404Z,62.52
2024-05-09T05:33:06.515Z,61.85
2024-05-09T05:35:34.555Z,61.69
2024-05-09T05:38:06.378Z,61.74
2024-05-09T05:40:37.181Z,61.17
2024-05-09T05:43:08.773Z,60.44
2024-05-09T05:45:36.580Z,59.48
2024-05-09T05:48:05.777Z,59.06
2024-05-09T05:50:36.774Z,57.52
2024-05-09T05:53:07.082Z,57.48
2024-05-09T05:55:36.019Z,57.22
2024-05-09T05:58:03.596Z,56.71
2024-05-09T06:00:38.128Z,56.04
2024-05-09T06:03:11.333Z,55.56
2024-05-09T06:05:40.709Z,55.89
2024-05-09T06:08:09.236Z,56.59
2024-05-09T06:10:39.988Z,55.85
2024-05-09T06:13:12.899Z,53.58
2024-05-09T06:15:41.433Z,52.93
2024-05-09T06:18:10.585Z,50.66
2024-05-09T06:20:40.056Z,49.91
2024-05-09T06:23:08.586Z,49.80
2024-05-09T06:25:36.791Z,48.64
2024-05-09T06:28:05.993Z,47.78
2024-05-09T06:30:40.069Z,47.70
2024-05-09T06:33:11.522Z,47.24
2024-05-09T06:35:41.107Z,47.08
2024-05-09T06:38:09.890Z,46.95
2024-05-09T06:40:41.108Z,46.64
2024-05-09T06:43:14.496Z,45.68
2024-05-09T06:45:42.717Z,45.01
2024-05-09T06:48:12.652Z,44.51
2024-05-09T06:50:43.873Z,44.44
2024-05-09T06:53:13.830Z,45.12
2024-05-09T06:55:41.318Z,44.59
2024-05-09T06:58:09.203Z,44.67
2024-05-09T07:00:39.929Z,43.53
2024-05-09T07:03:11.104Z,41.94
2024-05-09T07:05:40.593Z,41.52
2024-05-09T07:08:11.401Z,41.96
2024-05-09T07:10:38.925Z,42.67
2024-05-09T07:13:09.700Z,41.65
2024-05-09T07:15:37.251Z,40.21
2024-05-09T07:18:09.855Z,40.08
2024-05-09T07:20:38.929Z,40.30
2024-05-09T07:23:10.965Z,40.98
2024-05-09T07:25:39.840Z,41.14
2024-05-09T07:28:18.166Z,40.87
2024-05-09T07:30:45.844Z,41.74
2024-05-09T07:33:22.176Z,41.97
2024-05-09T07:35:51.532Z,41.34
2024-05-09T07:38:20.555Z,41.15
2024-05-09T07:40:49.090Z,40.84
2024-05-09T07:43:19.725Z,40.80
2024-05-09T07:45:52.685Z,41.14
2024-05-09T07:50:00.733Z,40.37
2024-05-09T07:53:50.006Z,40.27
2024-05-09T07:56:22.470Z,39.69
2024-05-09T07:58:52.520Z,39.08
2024-05-09T08:01:21.043Z,38.22
2024-05-09T08:03:50.206Z,38.73
2024-05-09T08:06:17.946Z,38.69
2024-05-09T08:08:49.351Z,38.35
2024-05-09T08:11:16.842Z,37.97
2024-05-09T08:13:44.451Z,38.15
2024-05-09T08:16:15.002Z,37.77
2024-05-09T08:18:43.077Z,36.99
2024-05-09T08:21:13.578Z,36.22
2024-05-09T08:23:41.435Z,36.39
2024-05-09T08:26:08.936Z,36.86
2024-05-09T08:28:36.345Z,37.10
2024-05-09T08:31:09.411Z,36.62
2024-05-09T08:33:44.182Z,36.31
2024-05-09T08:36:12.037Z,36.71
2024-05-09T08:38:39.650Z,36.95
2024-05-09T08:41:07.748Z,36.56
2024-05-09T08:43:36.763Z,35.92
2024-05-09T08:46:07.532Z,35.14
2024-05-09T08:48:38.725Z,34.56
2024-05-09T08:51:06.610Z,34.02
2024-05-09T08:53:36.708Z,34.70
2024-05-09T08:56:04.652Z,34.27
2024-05-09T08:58:32.183Z,34.23
2024-05-09T09:01:00.330Z,34.46
2024-05-09T09:03:33.089Z,34.07
2024-05-09T09:06:12.124Z,34.21
2024-05-09T09:08:40.169Z,34.47
2024-05-09T09:11:07.864Z,34.27
2024-05-09T09:13:35.471Z,34.18
2024-05-09T09:16:03.761Z,33.87
2024-05-09T09:18:32.872Z,33.69
2024-05-09T09:21:02.985Z,34.03
2024-05-09T09:23:30.872Z,33.70
2024-05-09T09:25:59.773Z,33.69
2024-05-09T09:28:30.440Z,33.68
2024-05-09T09:31:03.216Z,33.92
2024-05-09T09:33:31.337Z,33.68
2024-05-09T09:35:59.031Z,33.74
2024-05-09T09:38:30.844Z,34.09
2024-05-09T09:40:58.472Z,33.16
2024-05-09T09:43:26.439Z,33.12
2024-05-09T09:45:55.149Z,33.00
2024-05-09T09:48:23.449Z,32.99
2024-05-09T09:50:51.355Z,32.99
2024-05-09T09:53:19.352Z,32.73
2024-05-09T09:55:47.162Z,32.32
2024-05-09T09:58:16.996Z,32.31
2024-05-09T10:00:45.503Z,32.73
2024-05-09T10:03:13.325Z,32.92
2024-05-09T10:05:43.974Z,32.41
2024-05-09T10:08:13.743Z,32.68
2024-05-09T10:10:46.144Z,32.72
2024-05-09T10:13:13.969Z,32.67
2024-05-09T10:15:54.311Z,33.31
2024-05-09T10:18:29.564Z,33.26
2024-05-09T10:20:59.911Z,32.97
2024-05-09T10:23:32.278Z,32.67
2024-05-09T10:26:04.493Z,33.13
2024-05-09T10:28:32.997Z,33.69
2024-05-09T10:31:08.187Z,33.51
2024-05-09T10:33:50.383Z,33.41
2024-05-09T10:36:19.646Z,33.92
2024-05-09T10:38:48.639Z,34.04
2024-05-09T10:41:16.490Z,34.39
2024-05-09T10:43:43.936Z,32.57
2024-05-09T10:46:11.834Z,32.64
2024-05-09T10:48:41.540Z,32.69
2024-05-09T10:51:09.249Z,32.84
2024-05-09T10:53:43.764Z,33.03
2024-05-09T10:56:11.546Z,32.94
2024-05-09T10:58:39.065Z,32.97
2024-05-09T11:01:07.473Z,33.71
2024-05-09T11:03:35.877Z,33.94
2024-05-09T11:06:05.773Z,33.79
2024-05-09T11:08:33.742Z,33.35
2024-05-09T11:11:07.677Z,33.17
2024-05-09T11:13:37.967Z,33.54
2024-05-09T11:16:28.591Z,33.65
2024-05-09T11:18:59.527Z,32.18
2024-05-09T11:21:27.281Z,31.67
2024-05-09T11:23:54.818Z,30.87
2024-05-09T11:26:25.425Z,30.63
2024-05-09T11:28:52.963Z,30.47
2024-05-09T11:31:20.711Z,30.95
2024-05-09T11:33:48.824Z,29.91
2024-05-09T11:36:16.947Z,29.93
2024-05-09T11:38:44.488Z,29.62
2024-05-09T11:41:18.534Z,30.12
2024-05-09T11:43:49.094Z,30.88
2024-05-09T11:46:16.685Z,30.69
2024-05-09T11:48:44.483Z,30.97
2024-05-09T11:51:12.033Z,31.33
2024-05-09T11:53:39.632Z,31.49
2024-05-09T11:56:07.415Z,31.11
2024-05-09T11:58:36.718Z,31.15
2024-05-09T12:01:04.550Z,31.13
2024-05-09T12:03:32.472Z,30.94
2024-05-09T12:06:00.566Z,30.25
2024-05-09T12:08:28.155Z,29.92
2024-05-09T12:10:55.775Z,30.20
2024-05-09T12:13:23.682Z,30.47
2024-05-09T12:15:51.275Z,30.57
2024-05-09T12:18:18.917Z,30.86
2024-05-09T12:20:46.585Z,30.22
2024-05-09T12:23:14.519Z,30.02
2024-05-09T12:25:42.158Z,30.52
2024-05-09T12:28:09.879Z,30.17
2024-05-09T12:30:41.551Z,29.51
2024-05-09T12:33:13.833Z,28.87
2024-05-09T12:35:44.390Z,29.24
2024-05-09T12:38:15.073Z,28.41
2024-05-09T12:40:46.171Z,27.08
2024-05-09T12:43:13.692Z,26.98
2024-05-09T12:45:41.333Z,27.76
2024-05-09T12:48:13.079Z,28.28
2024-05-09T12:50:41.524Z,28.46
2024-05-09T12:53:12.495Z,28.43
2024-05-09T12:55:48.131Z,28.88
2024-05-09T12:58:24.639Z,29.86
2024-05-09T13:00:52.721Z,29.96
2024-05-09T13:03:20.948Z,29.06
2024-05-09T13:05:49.869Z,29.03
2024-05-09T13:08:17.632Z,29.09
2024-05-09T13:10:45.051Z,29.04
2024-05-09T13:13:12.936Z,29.26
2024-05-09T13:15:40.710Z,29.58
2024-05-09T13:18:08.600Z,29.65
2024-05-09T13:20:36.767Z,29.64
2024-05-09T13:23:05.899Z,29.70
2024-05-09T13:25:34.936Z,30.29
2024-05-09T13:28:06.700Z,30.09
2024-05-09T13:30:39.894Z,30.25
2024-05-09T13:33:11.554Z,30.12
2024-05-09T13:35:45.765Z,30.57
2024-05-09T13:38:18.028Z,31.21
2024-05-09T13:40:45.692Z,31.34
2024-05-09T13:43:14.029Z,30.17
2024-05-09T13:45:41.703Z,30.06
2024-05-09T13:48:10.381Z,29.91
2024-05-09T13:50:38.869Z,29.99
2024-05-09T13:53:07.859Z,29.92
2024-05-09T13:55:39.739Z,30.02
2024-05-09T13:58:08.474Z,30.14
2024-05-09T14:00:44.995Z,30.31
2024-05-09T14:03:17.956Z,30.48
2024-05-09T14:05:47.637Z,29.69
2024-05-09T14:08:17.795Z,29.28
2024-05-09T14:10:46.931Z,29.67
2024-05-09T14:13:15.196Z,29.27
2024-05-09T14:15:42.989Z,28.83
2024-05-09T14:18:13.363Z,28.78
2024-05-09T14:20:42.424Z,28.46
2024-05-09T14:23:10.365Z,28.09
2024-05-09T14:25:42.828Z,27.66
2024-05-09T14:28:12.123Z,27.45
2024-05-09T14:30:40.393Z,27.42
2024-05-09T14:33:09.118Z,27.57
2024-05-09T14:35:38.276Z,28.44
2024-05-09T14:38:06.888Z,28.38
2024-05-09T14:40:41.029Z,28.31
2024-05-09T14:43:11.969Z,28.68
2024-05-09T14:45:39.862Z,28.52
2024-05-09T14:48:08.167Z,28.36
2024-05-09T14:50:38.980Z,28.78
2024-05-09T14:53:08.737Z,28.57
2024-05-09T14:55:37.716Z,28.25
2024-05-09T14:58:06.470Z,28.41
2024-05-09T15:00:41.506Z,28.76
2024-05-09T15:03:12.403Z,28.30
2024-05-09T15:05:40.300Z,28.04
2024-05-09T15:08:08.311Z,28.06
2024-05-09T15:10:37.086Z,28.07
2024-05-09T15:13:08.735Z,27.92
2024-05-09T15:15:37.602Z,27.61
2024-05-09T15:18:05.849Z,27.78
2024-05-09T15:20:36.436Z,28.26
2024-05-09T15:23:05.357Z,27.87
2024-05-09T15:25:35.956Z,27.77
2024-05-09T15:28:07.139Z,27.70
2024-05-09T15:30:35.195Z,27.72
2024-05-09T15:33:03.401Z,27.86
2024-05-09T15:35:31.417Z,27.50
2024-05-09T15:37:59.192Z,27.58
2024-05-09T15:40:35.646Z,27.60
2024-05-09T15:43:07.950Z,27.92
2024-05-09T15:45:36.150Z,27.84
2024-05-09T15:48:04.446Z,27.85
2024-05-09T15:50:37.867Z,28.15
2024-05-09T15:53:09.996Z,28.59
2024-05-09T15:55:38.610Z,28.73
2024-05-09T15:58:07.046Z,28.66
2024-05-09T16:00:39.382Z,28.84
2024-05-09T16:03:11.123Z,29.18
2024-05-09T16:05:40.761Z,29.33
2024-05-09T16:08:08.636Z,29.54
2024-05-09T16:10:38.687Z,29.88
2024-05-09T16:13:06.865Z,30.36
2024-05-09T16:15:34.382Z,30.68
2024-05-09T16:18:02.151Z,30.90
2024-05-09T16:20:38.268Z,31.16
2024-05-09T16:23:09.181Z,31.48
2024-05-09T16:25:37.256Z,31.82
2024-05-09T16:28:08.692Z,32.08
2024-05-09T16:30:40.003Z,32.15
2024-05-09T16:33:08.764Z,32.37
2024-05-09T16:35:39.150Z,32.80
2024-05-09T16:38:06.738Z,33.09
2024-05-09T16:40:38.904Z,33.50
2024-05-09T16:43:10.007Z,33.89
2024-05-09T16:45:43.645Z,34.27
2024-05-09T16:48:12.116Z,34.63
2024-05-09T16:50:39.574Z,34.95
2024-05-09T16:53:07.478Z,34.96
2024-05-09T16:55:35.724Z,34.89
2024-05-09T16:58:04.309Z,34.98
2024-05-09T17:00:40.058Z,34.93
2024-05-09T17:03:13.056Z,35.00
2024-05-09T17:05:42.448Z,35.24
2024-05-09T17:08:10.449Z,35.52
2024-05-09T17:10:38.479Z,35.68
2024-05-09T17:13:07.552Z,35.94
2024-05-09T17:15:37.078Z,35.99
2024-05-09T17:18:06.413Z,36.07
2024-05-09T17:20:36.525Z,36.09
2024-05-09T17:23:12.151Z,36.11
2024-05-09T17:25:39.622Z,36.25
2024-05-09T17:28:08.323Z,36.40
2024-05-09T17:30:38.267Z,36.58
2024-05-09T17:33:08.440Z,36.91
2024-05-09T17:35:37.008Z,37.16
2024-05-09T17:38:05.430Z,37.37
2024-05-09T17:40:36.054Z,37.70
2024-05-09T17:43:06.935Z,38.19
2024-05-09T17:45:38.103Z,38.85
2024-05-09T17:48:06.200Z,39.34
2024-05-09T17:50:36.535Z,39.64
2024-05-09T17:53:06.161Z,40.16
2024-05-09T17:55:34.240Z,40.27
2024-05-09T17:58:01.983Z,40.35
2024-05-09T18:00:37.557Z,40.42
2024-05-09T18:03:10.347Z,40.61
2024-05-09T18:05:38.481Z,40.65
2024-05-09T18:08:06.976Z,40.61
2024-05-09T18:10:38.149Z,40.55
2024-05-09T18:13:08.490Z,40.64
2024-05-09T18:15:36.535Z,40.71
2024-05-09T18:18:04.710Z,40.92
2024-05-09T18:20:41.398Z,41.17
2024-05-09T18:23:13.543Z,41.36
2024-05-09T18:25:41.750Z,41.57
2024-05-09T18:28:09.390Z,41.61
2024-05-09T18:30:37.695Z,41.75
2024-05-09T18:33:07.725Z,41.85
2024-05-09T18:35:36.508Z,42.05
2024-05-09T18:38:05.190Z,42.18
2024-05-09T18:40:36.293Z,42.42
2024-05-09T18:43:07.949Z,42.80
2024-05-09T18:45:39.170Z,43.01
2024-05-09T18:48:08.536Z,43.23
2024-05-09T18:50:39.616Z,43.51
2024-05-09T18:53:12.905Z,43.69
2024-05-09T18:55:41.750Z,44.04
2024-05-09T18:58:09.594Z,44.37
2024-05-09T19:00:41.430Z,44.88
2024-05-09T19:03:13.764Z,45.09
2024-05-09T19:05:45.909Z,45.37
2024-05-09T19:08:15.324Z,45.66
2024-05-09T19:10:45.021Z,45.94
2024-05-09T19:13:14.052Z,46.11
2024-05-09T19:15:44.019Z,46.28
2024-05-09T19:18:13.229Z,46.43
2024-05-09T19:20:41.586Z,46.51
2024-05-09T19:23:11.617Z,46.87
2024-05-09T19:25:40.338Z,47.25
2024-05-09T19:28:08.193Z,47.92
2024-05-09T19:30:40.328Z,48.54
2024-05-09T19:33:12.733Z,48.77
2024-05-09T19:35:42.604Z,48.91
2024-05-09T19:38:10.515Z,49.35
2024-05-09T19:40:38.135Z,49.69
2024-05-09T19:43:06.463Z,49.85
2024-05-09T19:45:35.467Z,49.92
2024-05-09T19:48:06.231Z,50.01
2024-05-09T19:50:41.443Z,50.10
2024-05-09T19:53:12.647Z,50.27
2024-05-09T19:55:41.234Z,50.40
2024-05-09T19:58:09.651Z,50.66
2024-05-09T20:00:39.835Z,51.00
2024-05-09T20:03:11.214Z,50.94
2024-05-09T20:05:39.536Z,50.94
2024-05-09T20:08:07.904Z,50.94
2024-05-09T20:10:36.667Z,51.12
2024-05-09T20:13:06.430Z,51.24
2024-05-09T20:15:35.692Z,51.26
2024-05-09T20:18:04.028Z,51.44
2024-05-09T20:20:38.105Z,51.61
2024-05-09T20:23:10.116Z,51.78
2024-05-09T20:25:37.630Z,52.05
2024-05-09T20:28:06.107Z,52.12
2024-05-09T20:30:34.878Z,52.36
2024-05-09T20:33:05.472Z,52.27
2024-05-09T20:35:35.018Z,52.28
2024-05-09T20:38:03.478Z,52.20
2024-05-09T20:40:35.679Z,52.31
2024-05-09T20:43:07.601Z,52.15
2024-05-09T20:45:35.623Z,51.79
2024-05-09T20:48:03.746Z,51.55
2024-05-09T20:50:37.948Z,51.52
2024-05-09T20:53:09.855Z,51.74
2024-05-09T20:55:37.562Z,51.83
2024-05-09T20:58:05.450Z,51.93
2024-05-09T21:00:39.734Z,52.05
2024-05-09T21:03:11.495Z,52.01
2024-05-09T21:05:40.261Z,51.79
2024-05-09T21:08:08.185Z,51.81
2024-05-09T21:10:36.249Z,51.45
2024-05-09T21:13:04.734Z,51.39
2024-05-09T21:15:32.686Z,51.41
2024-05-09T21:18:00.389Z,51.37
2024-05-09T21:20:31.664Z,51.58
2024-05-09T21:23:01.814Z,51.51
2024-05-09T21:25:30.622Z,51.32
2024-05-09T21:27:58.399Z,51.41
2024-05-09T21:30:33.083Z,51.52
2024-05-09T21:33:09.671Z,51.87
2024-05-09T21:35:38.955Z,51.91
2024-05-09T21:38:07.670Z,52.04
2024-05-09T21:40:36.828Z,52.11
2024-05-09T21:43:06.432Z,52.03
2024-05-09T21:45:34.612Z,52.00
2024-05-09T21:48:06.233Z,52.12
2024-05-09T21:50:39.908Z,52.15
2024-05-09T21:53:14.002Z,52.22
2024-05-09T21:55:42.383Z,52.45
2024-05-09T21:58:11.526Z,52.68
2024-05-09T22:00:40.734Z,52.85
2024-05-09T22:03:09.708Z,52.84
2024-05-09T22:05:39.112Z,52.74
2024-05-09T22:08:07.508Z,52.71
2024-05-09T22:10:36.538Z,52.76
2024-05-09T22:13:06.131Z,52.74
2024-05-09T22:15:35.445Z,52.77
2024-05-09T22:18:03.753Z,52.89
2024-05-09T22:20:37.034Z,52.53
2024-05-09T22:23:07.831Z,52.22
2024-05-09T22:25:36.536Z,51.87
2024-05-09T22:28:04.543Z,51.57
2024-05-09T22:30:37.033Z,51.45
2024-05-09T22:33:08.461Z,51.32
2024-05-09T22:35:37.081Z,51.36
2024-05-09T22:38:04.645Z,51.34
2024-05-09T22:40:42.482Z,51.10
2024-05-09T22:43:23.894Z,50.90
2024-05-09T22:45:54.573Z,50.77
2024-05-09T22:48:23.705Z,50.75
2024-05-09T22:50:51.824Z,51.17
2024-05-09T22:53:21.678Z,51.45
2024-05-09T22:55:49.396Z,51.56
2024-05-09T22:58:17.167Z,51.71
2024-05-09T23:00:44.668Z,51.72
2024-05-09T23:03:13.933Z,51.61
2024-05-09T23:05:41.343Z,51.74
2024-05-09T23:08:08.742Z,52.01
2024-05-09T23:10:37.945Z,52.22
2024-05-09T23:13:07.436Z,52.69
2024-05-09T23:15:36.583Z,52.99
2024-05-09T23:18:04.510Z,53.31
2024-05-09T23:20:37.464Z,53.69
2024-05-09T23:23:08.101Z,53.84
2024-05-09T23:25:36.629Z,53.67
2024-05-09T23:28:04.535Z,53.57
2024-05-09T23:30:37.252Z,53.37
2024-05-09T23:33:09.044Z,53.44
2024-05-09T23:35:36.745Z,53.22
2024-05-09T23:38:04.580Z,53.52
2024-05-09T23:43:02.857Z,53.67
2024-05-09T23:45:30.852Z,53.59
2024-05-09T23:47:58.355Z,53.64
2024-05-09T23:50:33.640Z,53.91
2024-05-09T23:53:04.622Z,54.12
2024-05-09T23:55:32.798Z,54.29
2024-05-09T23:58:00.771Z,54.44
